42NY weather

Walter's Field
East Homer, New York, United States

Public forecast

Using degrees Fahrenheit for public forecast. Weather courtesy of forecast.io.

METAR (pilot weather report)

Closest report is Cortland County Chase Field, 8.4 nm (15.5 km) WSW. Retrieved 2019/07/20 18:35 UTC (23 minutes ago):

KN03 201835Z AUTO 20006KT 10SM CLR 30/23 A2986 RMK AO2

TAF (pilot weather forecast)

Closest forecast is Ithaca Tompkins Regional Airport, 20.7 nm (38.4 km) WSW. Retrieved 2019/07/20 18:40 UTC (18 minutes ago):

TAF KITH 201738Z 2018/2118 21009KT P6SM SCT040 FM202000 24011KT P6SM BKN050 FM210300 VRB04KT P6SM SCT040 BKN100 TEMPO 2111/2115 BKN022 FM211500 30009KT P6SM SCT030